sensor_id;sensor_type;location;lat;lon;timestamp;temperature;humidity
35244;DHT22;37916;52.160;21.066;2022-12-20T00:02:09;-0.60;86.10
35244;DHT22;37916;52.160;21.066;2022-12-20T00:12:09;-0.50;86.60
35244;DHT22;37916;52.160;21.066;2022-12-20T00:22:10;-0.40;86.80
35244;DHT22;37916;52.160;21.066;2022-12-20T00:32:11;-0.30;86.90
35244;DHT22;37916;52.160;21.066;2022-12-20T00:42:11;-0.20;87.30
35244;DHT22;37916;52.160;21.066;2022-12-20T00:52:12;-0.10;87.30
35244;DHT22;37916;52.160;21.066;2022-12-20T01:02:12;-0.10;87.50
35244;DHT22;37916;52.160;21.066;2022-12-20T01:12:13;0.00;87.80
35244;DHT22;37916;52.160;21.066;2022-12-20T01:22:14;0.00;87.90
35244;DHT22;37916;52.160;21.066;2022-12-20T01:32:15;0.10;88.30
35244;DHT22;37916;52.160;21.066;2022-12-20T01:42:15;0.10;88.50
35244;DHT22;37916;52.160;21.066;2022-12-20T01:52:41;0.20;89.00
35244;DHT22;37916;52.160;21.066;2022-12-20T02:02:40;0.20;89.10
35244;DHT22;37916;52.160;21.066;2022-12-20T02:12:46;0.30;89.10
35244;DHT22;37916;52.160;21.066;2022-12-20T02:33:03;0.40;89.40
35244;DHT22;37916;52.160;21.066;2022-12-20T02:43:06;0.40;89.50
35244;DHT22;37916;52.160;21.066;2022-12-20T02:53:29;0.50;89.60
35244;DHT22;37916;52.160;21.066;2022-12-20T03:03:32;0.50;89.80
35244;DHT22;37916;52.160;21.066;2022-12-20T03:13:33;0.60;89.80
35244;DHT22;37916;52.160;21.066;2022-12-20T03:23:34;0.60;89.80
35244;DHT22;37916;52.160;21.066;2022-12-20T03:33:35;0.70;89.70
35244;DHT22;37916;52.160;21.066;2022-12-20T03:43:35;0.70;89.90
35244;DHT22;37916;52.160;21.066;2022-12-20T03:53:36;0.80;89.80
35244;DHT22;37916;52.160;21.066;2022-12-20T04:03:38;0.90;90.00
35244;DHT22;37916;52.160;21.066;2022-12-20T04:13:38;0.90;89.90
35244;DHT22;37916;52.160;21.066;2022-12-20T04:23:40;0.90;89.90
35244;DHT22;37916;52.160;21.066;2022-12-20T04:33:41;1.00;89.80
35244;DHT22;37916;52.160;21.066;2022-12-20T04:43:42;1.00;89.90
35244;DHT22;37916;52.160;21.066;2022-12-20T04:53:45;1.00;89.80
35244;DHT22;37916;52.160;21.066;2022-12-20T05:03:50;0.90;89.90
35244;DHT22;37916;52.160;21.066;2022-12-20T05:13:50;1.00;90.30
35244;DHT22;37916;52.160;21.066;2022-12-20T05:23:51;0.90;90.40
35244;DHT22;37916;52.160;21.066;2022-12-20T05:34:10;1.10;90.60
35244;DHT22;37916;52.160;21.066;2022-12-20T05:44:11;1.10;90.70
35244;DHT22;37916;52.160;21.066;2022-12-20T05:54:12;1.10;90.60
35244;DHT22;37916;52.160;21.066;2022-12-20T06:04:12;1.20;90.70
35244;DHT22;37916;52.160;21.066;2022-12-20T06:14:13;1.20;90.50
35244;DHT22;37916;52.160;21.066;2022-12-20T06:24:17;1.20;90.50
35244;DHT22;37916;52.160;21.066;2022-12-20T06:34:18;1.30;90.60
35244;DHT22;37916;52.160;21.066;2022-12-20T06:44:19;1.30;90.50
35244;DHT22;37916;52.160;21.066;2022-12-20T06:54:20;1.20;90.50
35244;DHT22;37916;52.160;21.066;2022-12-20T07:04:21;1.20;90.40
35244;DHT22;37916;52.160;21.066;2022-12-20T07:14:21;1.30;90.60
35244;DHT22;37916;52.160;21.066;2022-12-20T07:24:22;1.50;90.70
35244;DHT22;37916;52.160;21.066;2022-12-20T07:34:23;1.60;90.70
35244;DHT22;37916;52.160;21.066;2022-12-20T07:44:23;1.80;90.80
35244;DHT22;37916;52.160;21.066;2022-12-20T07:54:30;2.00;90.40
35244;DHT22;37916;52.160;21.066;2022-12-20T08:04:33;2.10;90.30
35244;DHT22;37916;52.160;21.066;2022-12-20T08:14:33;2.20;90.00
35244;DHT22;37916;52.160;21.066;2022-12-20T08:24:34;2.30;90.20
35244;DHT22;37916;52.160;21.066;2022-12-20T08:34:35;2.50;90.10
35244;DHT22;37916;52.160;21.066;2022-12-20T08:44:35;2.70;90.50
35244;DHT22;37916;52.160;21.066;2022-12-20T08:54:36;2.70;90.50
35244;DHT22;37916;52.160;21.066;2022-12-20T09:04:37;2.90;89.90
35244;DHT22;37916;52.160;21.066;2022-12-20T09:14:37;3.30;90.40
35244;DHT22;37916;52.160;21.066;2022-12-20T09:24:38;3.40;90.10
35244;DHT22;37916;52.160;21.066;2022-12-20T09:34:39;3.50;89.20
35244;DHT22;37916;52.160;21.066;2022-12-20T09:44:40;3.80;87.50
35244;DHT22;37916;52.160;21.066;2022-12-20T10:05:00;3.90;80.50
35244;DHT22;37916;52.160;21.066;2022-12-20T10:15:22;4.10;81.20
35244;DHT22;37916;52.160;21.066;2022-12-20T10:25:31;3.90;81.00
35244;DHT22;37916;52.160;21.066;2022-12-20T10:35:33;3.80;81.50
35244;DHT22;37916;52.160;21.066;2022-12-20T10:45:38;3.80;82.80
35244;DHT22;37916;52.160;21.066;2022-12-20T10:55:47;4.00;81.60
35244;DHT22;37916;52.160;21.066;2022-12-20T11:16:08;4.30;80.70
35244;DHT22;37916;52.160;21.066;2022-12-20T11:37:43;4.40;80.90
35244;DHT22;37916;52.160;21.066;2022-12-20T11:58:55;4.10;81.00
35244;DHT22;37916;52.160;21.066;2022-12-20T12:52:04;5.00;78.10
35244;DHT22;37916;52.160;21.066;2022-12-20T13:02:32;4.80;78.60
35244;DHT22;37916;52.160;21.066;2022-12-20T13:13:33;4.60;80.10
35244;DHT22;37916;52.160;21.066;2022-12-20T13:46:31;4.30;81.90
35244;DHT22;37916;52.160;21.066;2022-12-20T14:19:13;3.80;81.90
35244;DHT22;37916;52.160;21.066;2022-12-20T14:29:23;3.70;81.90
35244;DHT22;37916;52.160;21.066;2022-12-20T14:50:49;3.80;83.00
35244;DHT22;37916;52.160;21.066;2022-12-20T15:01:23;3.60;82.60
35244;DHT22;37916;52.160;21.066;2022-12-20T15:22:52;3.40;83.50
35244;DHT22;37916;52.160;21.066;2022-12-20T16:14:46;3.10;84.50
35244;DHT22;37916;52.160;21.066;2022-12-20T16:46:21;3.20;84.60
35244;DHT22;37916;52.160;21.066;2022-12-20T16:56:34;3.40;84.50
35244;DHT22;37916;52.160;21.066;2022-12-20T17:07:10;3.40;84.00
35244;DHT22;37916;52.160;21.066;2022-12-20T17:17:35;3.40;84.20
35244;DHT22;37916;52.160;21.066;2022-12-20T17:27:45;3.50;84.00
